Time;durP1;ratioP1;P1;durP2;ratioP2;P2;SDS_P1;SDS_P2;PMS_P1;PMS_P2;Temp;Humidity;BMP_temperature;BMP_pressure;BME280_temperature;BME280_humidity;BME280_pressure;Samples;Min_cycle;Max_cycle;Signal;HPM_P1;HPM_P2
2023/06/02 00:01:34;;;;;;;5.45;4.97;;;;;;;;;;5138650;27;20320;-64
2023/06/02 00:04:02;;;;;;;5.57;5.15;;;;;;;;;;5139366;27;20241;-66
2023/06/02 00:06:32;;;;;;;5.75;4.80;;;;;;;;;;5138842;27;20202;-65
2023/06/02 00:09:00;;;;;;;5.40;5.00;;;;;;;;;;5138704;27;20201;-65
2023/06/02 00:11:34;;;;;;;5.35;4.95;;;;;;;;;;5138789;27;20570;-64
2023/06/02 00:14:02;;;;;;;5.25;4.80;;;;;;;;;;5138826;27;20210;-64
2023/06/02 00:16:30;;;;;;;5.60;5.10;;;;;;;;;;5138636;27;20202;-65
2023/06/02 00:18:58;;;;;;;5.55;5.13;;;;;;;;;;5138870;27;20211;-64
2023/06/02 00:21:26;;;;;;;5.20;4.80;;;;;;;;;;5138594;27;20218;-65
2023/06/02 00:23:54;;;;;;;5.00;4.60;;;;;;;;;;5138794;27;20210;-65
2023/06/02 00:26:21;;;;;;;5.78;5.25;;;;;;;;;;5138743;27;20210;-64
2023/06/02 00:28:51;;;;;;;5.32;4.93;;;;;;;;;;5138552;27;20209;-64
2023/06/02 00:31:19;;;;;;;5.13;4.57;;;;;;;;;;5138497;27;20531;-63
2023/06/02 00:33:47;;;;;;;5.57;4.75;;;;;;;;;;5138514;27;20205;-63
2023/06/02 00:36:15;;;;;;;5.40;5.00;;;;;;;;;;5138124;27;20238;-65
2023/06/02 00:38:42;;;;;;;5.28;4.85;;;;;;;;;;5138813;27;20205;-63
2023/06/02 00:41:10;;;;;;;5.72;5.22;;;;;;;;;;5138328;27;20287;-63
2023/06/02 00:43:37;;;;;;;5.50;5.10;;;;;;;;;;5138251;27;20263;-63
2023/06/02 00:46:07;;;;;;;5.80;5.18;;;;;;;;;;5138387;27;20208;-64
2023/06/02 00:48:34;;;;;;;5.10;4.70;;;;;;;;;;5138183;27;20202;-65
2023/06/02 00:51:02;;;;;;;5.57;4.97;;;;;;;;;;5137933;27;20205;-63
2023/06/02 00:53:29;;;;;;;5.32;4.93;;;;;;;;;;5138518;27;20286;-62
2023/06/02 00:55:57;;;;;;;5.38;4.97;;;;;;;;;;5138100;27;20234;-63
2023/06/02 00:58:25;;;;;;;5.20;4.70;;;;;;;;;;5137858;27;20210;-64
2023/06/02 01:00:54;;;;;;;5.93;5.35;;;;;;;;;;5138132;27;20292;-64
2023/06/02 01:03:26;;;;;;;5.93;5.43;;;;;;;;;;5138067;27;20210;-64
2023/06/02 01:05:55;;;;;;;5.43;4.93;;;;;;;;;;5138227;27;20207;-64
2023/06/02 01:08:22;;;;;;;5.35;4.95;;;;;;;;;;5137795;27;20205;-64
2023/06/02 01:10:52;;;;;;;5.47;4.97;;;;;;;;;;5137951;27;20202;-64
2023/06/02 01:13:20;;;;;;;5.78;5.28;;;;;;;;;;5138024;28;20304;-64
2023/06/02 01:15:47;;;;;;;5.50;5.00;;;;;;;;;;5137977;27;20279;-64
2023/06/02 01:18:16;;;;;;;5.45;4.95;;;;;;;;;;5140699;27;20213;-62
2023/06/02 01:20:49;;;;;;;5.78;5.32;;;;;;;;;;5142047;27;20202;-63
2023/06/02 01:23:18;;;;;;;5.63;5.22;;;;;;;;;;5142241;27;20258;-63
2023/06/02 01:25:49;;;;;;;5.88;5.30;;;;;;;;;;5142357;27;20202;-64
2023/06/02 01:28:17;;;;;;;5.45;5.05;;;;;;;;;;5125145;27;20202;-63
2023/06/02 01:30:44;;;;;;;5.55;5.15;;;;;;;;;;5141423;27;20585;-65
2023/06/02 01:33:16;;;;;;;6.35;5.85;;;;;;;;;;5142019;27;20199;-63
2023/06/02 01:35:45;;;;;;;5.80;5.30;;;;;;;;;;5141806;27;20234;-64
2023/06/02 01:38:14;;;;;;;6.18;5.78;;;;;;;;;;5141975;27;20264;-64
2023/06/02 01:40:42;;;;;;;5.45;4.97;;;;;;;;;;5141683;27;20202;-64
2023/06/02 01:43:12;;;;;;;6.38;5.78;;;;;;;;;;5141763;27;20648;-65
2023/06/02 01:45:40;;;;;;;5.50;5.00;;;;;;;;;;5141623;27;20437;-64
2023/06/02 01:48:08;;;;;;;5.63;5.13;;;;;;;;;;5141957;27;20831;-63
2023/06/02 01:50:37;;;;;;;5.30;4.80;;;;;;;;;;5141321;27;20202;-63
2023/06/02 01:53:04;;;;;;;5.65;5.25;;;;;;;;;;5141362;27;20598;-64
2023/06/02 01:55:32;;;;;;;5.93;5.43;;;;;;;;;;5140606;27;20195;-63
2023/06/02 01:57:59;;;;;;;5.40;5.00;;;;;;;;;;5140860;27;20234;-63
2023/06/02 02:00:28;;;;;;;5.35;4.95;;;;;;;;;;5141406;27;20198;-63
2023/06/02 02:02:56;;;;;;;5.15;4.75;;;;;;;;;;5141512;27;20229;-64
2023/06/02 02:05:23;;;;;;;6.13;5.45;;;;;;;;;;5141506;27;20592;-62
2023/06/02 02:07:52;;;;;;;5.43;4.90;;;;;;;;;;5141327;27;20202;-64
2023/06/02 02:10:20;;;;;;;5.90;5.30;;;;;;;;;;5141704;27;20527;-64
2023/06/02 02:12:47;;;;;;;5.07;4.68;;;;;;;;;;5140935;27;20206;-64
2023/06/02 02:15:15;;;;;;;6.55;4.93;;;;;;;;;;5141400;27;20271;-63
2023/06/02 02:17:47;;;;;;;5.10;4.60;;;;;;;;;;5140957;27;20224;-63
2023/06/02 02:20:16;;;;;;;5.68;4.78;;;;;;;;;;5141035;27;20234;-63
2023/06/02 02:22:44;;;;;;;6.70;4.38;;;;;;;;;;5140571;27;20237;-62
2023/06/02 02:25:11;;;;;;;6.47;4.50;;;;;;;;;;5140654;27;20291;-64
2023/06/02 02:27:39;;;;;;;4.90;4.45;;;;;;;;;;5140703;27;20217;-63
2023/06/02 02:30:07;;;;;;;5.57;4.40;;;;;;;;;;5141368;27;20203;-64
2023/06/02 02:32:36;;;;;;;5.07;4.50;;;;;;;;;;5140575;27;20217;-64
2023/06/02 02:35:06;;;;;;;5.90;5.00;;;;;;;;;;5140711;27;20234;-63
2023/06/02 02:37:33;;;;;;;5.35;4.15;;;;;;;;;;5140040;27;20256;-63
2023/06/02 02:40:01;;;;;;;6.25;4.45;;;;;;;;;;5139843;27;20194;-63
2023/06/02 02:42:28;;;;;;;5.20;4.53;;;;;;;;;;5140024;27;20353;-64
2023/06/02 02:44:56;;;;;;;4.53;4.13;;;;;;;;;;5140162;27;20202;-64
2023/06/02 02:47:23;;;;;;;5.32;4.72;;;;;;;;;;5140680;27;20294;-64
2023/06/02 02:49:51;;;;;;;5.55;4.68;;;;;;;;;;5140487;27;20590;-64
2023/06/02 02:52:21;;;;;;;5.00;4.43;;;;;;;;;;5140464;27;20232;-63
2023/06/02 02:54:49;;;;;;;5.38;3.97;;;;;;;;;;5140086;27;20446;-63
2023/06/02 02:57:17;;;;;;;5.75;4.50;;;;;;;;;;5120564;27;20215;-63
2023/06/02 02:59:44;;;;;;;5.55;4.25;;;;;;;;;;5119795;28;20261;-63
2023/06/02 03:02:13;;;;;;;5.43;4.60;;;;;;;;;;5119554;28;20218;-63
2023/06/02 03:04:43;;;;;;;4.43;3.90;;;;;;;;;;5119376;28;20203;-62
2023/06/02 03:07:10;;;;;;;5.75;4.70;;;;;;;;;;5119281;28;20280;-63
2023/06/02 03:09:39;;;;;;;5.10;4.10;;;;;;;;;;5119459;28;20203;-62
2023/06/02 03:12:07;;;;;;;5.13;3.95;;;;;;;;;;5119227;28;20259;-63
2023/06/02 03:14:34;;;;;;;5.10;4.28;;;;;;;;;;5119303;28;20203;-63
2023/06/02 03:17:02;;;;;;;5.47;4.20;;;;;;;;;;5119671;28;20203;-63
2023/06/02 03:19:30;;;;;;;4.60;4.20;;;;;;;;;;5118964;28;20249;-63
2023/06/02 03:21:57;;;;;;;4.63;4.10;;;;;;;;;;5118613;28;20262;-63
2023/06/02 03:24:25;;;;;;;7.40;4.90;;;;;;;;;;5118734;28;20253;-63
2023/06/02 03:26:55;;;;;;;5.57;4.90;;;;;;;;;;5119325;28;20659;-63
2023/06/02 03:29:23;;;;;;;5.63;4.43;;;;;;;;;;5119197;28;20214;-63
2023/06/02 03:31:52;;;;;;;5.70;4.72;;;;;;;;;;5119242;28;20470;-63
2023/06/02 03:34:20;;;;;;;5.55;4.38;;;;;;;;;;5119048;28;20640;-63
2023/06/02 03:36:49;;;;;;;6.63;4.10;;;;;;;;;;5119071;28;20202;-63
2023/06/02 03:39:16;;;;;;;8.15;4.78;;;;;;;;;;5119132;28;20302;-63
2023/06/02 03:41:44;;;;;;;5.70;4.32;;;;;;;;;;5118226;28;20210;-63
2023/06/02 03:44:13;;;;;;;4.70;4.30;;;;;;;;;;5118336;28;20210;-63
2023/06/02 03:46:41;;;;;;;5.72;4.38;;;;;;;;;;5118840;28;20203;-63
2023/06/02 03:49:08;;;;;;;5.13;4.70;;;;;;;;;;5118494;28;20281;-64
2023/06/02 03:51:36;;;;;;;4.93;4.53;;;;;;;;;;5118854;28;20202;-63
2023/06/02 03:54:03;;;;;;;5.18;4.50;;;;;;;;;;5118098;28;20477;-64
2023/06/02 03:56:31;;;;;;;4.95;4.35;;;;;;;;;;5118203;28;20226;-63
2023/06/02 03:58:58;;;;;;;4.82;4.32;;;;;;;;;;5118313;28;20221;-64
2023/06/02 04:01:27;;;;;;;5.65;4.55;;;;;;;;;;5117951;28;20698;-63
2023/06/02 04:03:54;;;;;;;6.05;4.68;;;;;;;;;;5118346;28;20235;-64
2023/06/02 04:06:22;;;;;;;5.90;4.53;;;;;;;;;;5118211;28;20203;-63
2023/06/02 04:08:49;;;;;;;6.15;4.70;;;;;;;;;;5117643;28;20226;-63
2023/06/02 04:11:17;;;;;;;5.60;5.03;;;;;;;;;;5118155;28;20601;-63
2023/06/02 04:13:45;;;;;;;5.13;4.63;;;;;;;;;;5117997;28;20199;-63
2023/06/02 04:16:12;;;;;;;7.07;4.80;;;;;;;;;;5118216;28;20203;-63
2023/06/02 04:18:41;;;;;;;6.75;4.72;;;;;;;;;;5118266;28;20211;-63
2023/06/02 04:21:08;;;;;;;5.68;5.00;;;;;;;;;;5117622;28;20209;-63
2023/06/02 04:23:36;;;;;;;6.80;4.88;;;;;;;;;;5117066;28;20230;-63
2023/06/02 04:26:03;;;;;;;5.35;4.50;;;;;;;;;;5117235;28;20203;-64
2023/06/02 04:28:31;;;;;;;7.05;4.85;;;;;;;;;;5117449;28;20214;-63
2023/06/02 04:31:00;;;;;;;5.72;4.78;;;;;;;;;;5117492;28;20203;-63
2023/06/02 04:33:27;;;;;;;8.90;5.07;;;;;;;;;;5117681;28;20222;-62
2023/06/02 04:35:57;;;;;;;8.68;4.72;;;;;;;;;;5117462;28;20234;-62
2023/06/02 04:38:25;;;;;;;6.20;4.93;;;;;;;;;;5117442;28;20211;-63
2023/06/02 04:40:53;;;;;;;7.30;5.22;;;;;;;;;;5117032;28;20265;-62
2023/06/02 04:43:20;;;;;;;7.05;5.05;;;;;;;;;;5117196;28;20230;-62
2023/06/02 04:45:47;;;;;;;6.05;5.00;;;;;;;;;;5117416;28;20200;-63
2023/06/02 04:48:15;;;;;;;8.40;5.70;;;;;;;;;;5117024;28;20206;-64
2023/06/02 04:50:42;;;;;;;7.25;5.45;;;;;;;;;;5116515;28;20199;-64
2023/06/02 04:53:13;;;;;;;7.07;5.90;;;;;;;;;;5116060;28;20653;-63
2023/06/02 04:55:40;;;;;;;6.82;6.07;;;;;;;;;;5116462;28;20281;-63
2023/06/02 04:58:08;;;;;;;8.25;6.38;;;;;;;;;;5115154;28;20525;-64
2023/06/02 05:00:35;;;;;;;7.00;6.30;;;;;;;;;;5115834;28;20687;-63
2023/06/02 05:03:02;;;;;;;8.65;6.25;;;;;;;;;;5115657;28;20222;-64
2023/06/02 05:05:30;;;;;;;7.93;6.40;;;;;;;;;;5115534;28;20213;-63
2023/06/02 05:07:57;;;;;;;6.53;5.93;;;;;;;;;;5115972;28;20203;-64
2023/06/02 05:10:26;;;;;;;10.02;7.32;;;;;;;;;;5115315;28;20230;-64
2023/06/02 05:12:54;;;;;;;9.32;7.32;;;;;;;;;;5115071;28;20256;-63
2023/06/02 05:15:21;;;;;;;7.75;6.95;;;;;;;;;;5116017;28;20203;-64
2023/06/02 05:17:49;;;;;;;7.85;7.05;;;;;;;;;;5114709;28;20209;-64
2023/06/02 05:20:16;;;;;;;10.63;7.88;;;;;;;;;;5114665;28;20202;-63
2023/06/02 05:22:44;;;;;;;9.85;7.32;;;;;;;;;;5114859;28;20223;-63
2023/06/02 05:25:11;;;;;;;9.23;7.80;;;;;;;;;;5114998;28;20198;-63
2023/06/02 05:27:40;;;;;;;8.60;7.45;;;;;;;;;;5115582;28;20202;-63
2023/06/02 05:30:08;;;;;;;8.60;7.70;;;;;;;;;;5115574;28;20202;-64
2023/06/02 05:32:35;;;;;;;10.73;8.82;;;;;;;;;;5115260;28;20206;-63
2023/06/02 05:35:03;;;;;;;9.30;8.35;;;;;;;;;;5114487;28;20222;-64
2023/06/02 05:37:30;;;;;;;9.48;8.57;;;;;;;;;;5115294;28;20207;-63
2023/06/02 05:39:57;;;;;;;10.90;9.07;;;;;;;;;;5114930;28;20820;-63
2023/06/02 05:42:26;;;;;;;10.55;9.45;;;;;;;;;;5114521;28;20230;-63
2023/06/02 05:44:54;;;;;;;9.90;8.88;;;;;;;;;;5114166;28;20203;-63
2023/06/02 05:47:22;;;;;;;10.93;9.10;;;;;;;;;;5114245;28;20211;-63
2023/06/02 05:49:50;;;;;;;10.07;9.10;;;;;;;;;;5114887;28;20231;-64
2023/06/02 05:52:17;;;;;;;9.50;8.68;;;;;;;;;;5114555;28;20211;-64
2023/06/02 05:54:44;;;;;;;9.40;8.43;;;;;;;;;;5114399;28;20203;-64
2023/06/02 05:57:11;;;;;;;8.93;8.02;;;;;;;;;;5114635;28;20225;-63
2023/06/02 05:59:40;;;;;;;9.23;8.32;;;;;;;;;;5113962;28;20203;-63
2023/06/02 06:02:09;;;;;;;11.35;9.07;;;;;;;;;;5114413;28;20214;-63
2023/06/02 06:04:36;;;;;;;9.38;8.38;;;;;;;;;;5117898;28;20222;-63
2023/06/02 06:07:04;;;;;;;11.05;8.20;;;;;;;;;;5118536;28;20211;-63
2023/06/02 06:09:31;;;;;;;11.45;8.60;;;;;;;;;;5118015;28;20195;-64
2023/06/02 06:11:58;;;;;;;8.70;7.90;;;;;;;;;;5118483;28;20210;-63
2023/06/02 06:14:26;;;;;;;8.77;7.88;;;;;;;;;;5118159;28;20301;-63
2023/06/02 06:16:53;;;;;;;10.25;8.00;;;;;;;;;;5119389;28;20646;-64
2023/06/02 06:19:22;;;;;;;8.25;7.30;;;;;;;;;;5118686;28;20207;-64
2023/06/02 06:21:49;;;;;;;8.45;7.20;;;;;;;;;;5119014;28;20214;-63
2023/06/02 06:24:17;;;;;;;8.63;7.20;;;;;;;;;;5118806;28;21285;-64
2023/06/02 06:26:44;;;;;;;8.45;6.85;;;;;;;;;;5118318;28;20230;-64
2023/06/02 06:29:11;;;;;;;8.10;6.63;;;;;;;;;;5118653;28;20483;-64
2023/06/02 06:31:39;;;;;;;7.38;6.28;;;;;;;;;;5118063;28;20195;-64
2023/06/02 06:34:08;;;;;;;7.47;6.32;;;;;;;;;;5118815;28;20481;-64
2023/06/02 06:36:37;;;;;;;6.82;5.85;;;;;;;;;;5118894;28;20199;-64
2023/06/02 06:39:04;;;;;;;9.35;5.57;;;;;;;;;;5118428;28;20199;-64
2023/06/02 06:41:32;;;;;;;10.07;6.10;;;;;;;;;;5118495;28;20199;-64
2023/06/02 06:43:59;;;;;;;9.65;5.80;;;;;;;;;;5118084;28;20223;-63
2023/06/02 06:46:27;;;;;;;7.93;5.50;;;;;;;;;;5117894;28;20593;-64
2023/06/02 06:48:54;;;;;;;6.35;4.55;;;;;;;;;;5117400;28;20210;-63
2023/06/02 06:51:21;;;;;;;7.18;5.22;;;;;;;;;;5116935;28;20514;-63
2023/06/02 06:53:50;;;;;;;7.88;4.78;;;;;;;;;;5117915;28;20199;-63
2023/06/02 06:56:18;;;;;;;9.43;5.20;;;;;;;;;;5118652;28;20203;-63
2023/06/02 06:58:45;;;;;;;9.20;4.95;;;;;;;;;;5117698;28;20598;-64
2023/06/02 07:01:13;;;;;;;7.90;4.90;;;;;;;;;;5117680;28;20214;-64
2023/06/02 07:03:41;;;;;;;8.25;4.70;;;;;;;;;;5116385;28;20223;-65
2023/06/02 07:06:08;;;;;;;9.80;4.97;;;;;;;;;;5116954;28;20229;-64
2023/06/02 07:08:37;;;;;;;19.05;5.72;;;;;;;;;;5117177;28;20298;-64
2023/06/02 07:11:05;;;;;;;10.57;4.70;;;;;;;;;;5117177;28;20214;-64
2023/06/02 07:13:33;;;;;;;8.52;4.97;;;;;;;;;;5118571;28;20503;-64
2023/06/02 07:16:00;;;;;;;12.25;5.07;;;;;;;;;;5116800;28;20582;-63
2023/06/02 07:18:27;;;;;;;10.18;4.53;;;;;;;;;;5117692;28;20203;-64
2023/06/02 07:20:55;;;;;;;8.88;5.00;;;;;;;;;;5117709;28;20195;-63
2023/06/02 07:23:22;;;;;;;7.60;4.43;;;;;;;;;;5117937;28;20238;-63
2023/06/02 07:25:50;;;;;;;10.13;4.80;;;;;;;;;;5117920;28;20473;-64
2023/06/02 07:28:19;;;;;;;8.57;4.70;;;;;;;;;;5117121;28;20195;-63
2023/06/02 07:30:48;;;;;;;13.82;5.13;;;;;;;;;;5117354;28;20252;-64
2023/06/02 07:33:16;;;;;;;11.15;4.40;;;;;;;;;;5117550;28;20226;-63
2023/06/02 07:35:43;;;;;;;12.82;4.90;;;;;;;;;;5117013;28;20222;-64
2023/06/02 07:38:11;;;;;;;11.63;4.95;;;;;;;;;;5117366;28;20513;-63
2023/06/02 07:40:38;;;;;;;13.90;5.00;;;;;;;;;;5116720;28;20206;-64
2023/06/02 07:43:05;;;;;;;8.55;4.70;;;;;;;;;;5115821;28;20207;-64
2023/06/02 07:45:34;;;;;;;14.25;5.20;;;;;;;;;;5116639;28;20218;-64
2023/06/02 07:48:02;;;;;;;11.23;5.47;;;;;;;;;;5117187;28;20481;-64
2023/06/02 07:50:29;;;;;;;9.68;4.88;;;;;;;;;;5116571;28;20199;-64
2023/06/02 07:52:57;;;;;;;10.80;4.68;;;;;;;;;;5116980;28;20195;-63
2023/06/02 07:55:25;;;;;;;11.25;5.07;;;;;;;;;;5116441;28;20214;-64
2023/06/02 07:57:52;;;;;;;10.05;5.15;;;;;;;;;;5116003;28;20853;-63
2023/06/02 08:00:21;;;;;;;11.95;5.10;;;;;;;;;;5115895;28;20206;-64
2023/06/02 08:02:50;;;;;;;11.27;5.20;;;;;;;;;;5116417;28;20202;-63
2023/06/02 08:05:18;;;;;;;9.50;5.03;;;;;;;;;;5116615;28;20222;-64
2023/06/02 08:07:45;;;;;;;12.88;4.95;;;;;;;;;;5116895;28;20489;-64
2023/06/02 08:10:13;;;;;;;10.85;5.60;;;;;;;;;;5116484;28;20214;-64
2023/06/02 08:12:41;;;;;;;11.93;5.60;;;;;;;;;;5116222;28;20503;-63
2023/06/02 08:15:08;;;;;;;10.50;5.30;;;;;;;;;;5116129;28;20226;-64
2023/06/02 08:17:36;;;;;;;8.80;4.78;;;;;;;;;;5115845;28;20210;-64
2023/06/02 08:20:06;;;;;;;10.57;5.22;;;;;;;;;;5115641;28;20480;-63
2023/06/02 08:22:33;;;;;;;10.15;5.35;;;;;;;;;;5116165;28;20512;-63
2023/06/02 08:25:01;;;;;;;8.50;4.88;;;;;;;;;;5115374;28;20222;-63
2023/06/02 08:27:29;;;;;;;8.55;4.70;;;;;;;;;;5115403;28;20255;-64
2023/06/02 08:29:57;;;;;;;9.35;4.60;;;;;;;;;;5115378;28;20206;-63
2023/06/02 08:32:25;;;;;;;9.23;4.97;;;;;;;;;;5115787;28;20206;-63
2023/06/02 08:34:55;;;;;;;8.27;4.82;;;;;;;;;;5116343;28;20238;-64
2023/06/02 08:37:25;;;;;;;12.65;5.18;;;;;;;;;;5116740;28;20306;-63
2023/06/02 08:39:52;;;;;;;7.63;4.82;;;;;;;;;;5116162;28;20213;-64
2023/06/02 08:42:19;;;;;;;11.55;5.13;;;;;;;;;;5116194;28;20202;-63
2023/06/02 08:44:47;;;;;;;10.25;4.97;;;;;;;;;;5115233;28;20226;-64
2023/06/02 08:47:15;;;;;;;8.10;4.78;;;;;;;;;;5115195;28;20194;-64
2023/06/02 08:49:42;;;;;;;8.48;4.93;;;;;;;;;;5115442;28;20233;-64
2023/06/02 08:52:12;;;;;;;8.95;4.75;;;;;;;;;;5115995;28;20210;-65
2023/06/02 08:54:41;;;;;;;11.20;5.20;;;;;;;;;;5115733;28;20199;-63
2023/06/02 08:57:09;;;;;;;9.32;4.93;;;;;;;;;;5115587;28;20218;-63
2023/06/02 08:59:37;;;;;;;10.18;5.10;;;;;;;;;;5115313;28;20206;-64
2023/06/02 09:02:05;;;;;;;8.65;4.95;;;;;;;;;;5115672;28;20203;-64
2023/06/02 09:04:33;;;;;;;10.10;4.95;;;;;;;;;;5115208;28;20226;-64
2023/06/02 09:07:21;;;;;;;9.77;4.88;;;;;;;;;;5114897;28;20637;-64
2023/06/02 09:09:51;;;;;;;8.93;5.03;;;;;;;;;;5107153;28;20203;-63
2023/06/02 09:12:18;;;;;;;9.18;4.75;;;;;;;;;;5115221;28;20294;-63
2023/06/02 09:14:46;;;;;;;11.18;4.97;;;;;;;;;;5115568;28;20259;-63
2023/06/02 09:17:25;;;;;;;9.15;4.57;;;;;;;;;;5115485;28;20231;-63
2023/06/02 09:19:53;;;;;;;8.48;4.22;;;;;;;;;;5116252;28;20203;-63
2023/06/02 09:22:21;;;;;;;8.52;4.68;;;;;;;;;;5114999;28;20202;-63
2023/06/02 09:24:49;;;;;;;9.70;4.63;;;;;;;;;;5115075;28;20222;-64
2023/06/02 09:27:17;;;;;;;9.52;4.60;;;;;;;;;;5115953;28;20199;-64
2023/06/02 09:29:45;;;;;;;7.47;4.47;;;;;;;;;;5115924;28;20613;-63
2023/06/02 09:32:14;;;;;;;9.25;4.63;;;;;;;;;;5115023;28;20202;-63
2023/06/02 09:34:41;;;;;;;8.48;4.13;;;;;;;;;;5115252;28;20623;-63
2023/06/02 09:37:09;;;;;;;10.10;4.78;;;;;;;;;;5114929;28;20409;-63
2023/06/02 09:39:41;;;;;;;8.25;4.97;;;;;;;;;;5117838;28;20257;-64
2023/06/02 09:42:11;;;;;;;9.52;4.90;;;;;;;;;;5118597;28;20526;-63
2023/06/02 09:44:39;;;;;;;11.57;4.40;;;;;;;;;;5119300;28;20230;-63
2023/06/02 09:47:20;;;;;;;6.65;4.32;;;;;;;;;;5119113;28;20230;-64
2023/06/02 09:49:48;;;;;;;9.50;4.50;;;;;;;;;;5117964;28;20232;-63
2023/06/02 09:52:15;;;;;;;8.57;4.78;;;;;;;;;;5118513;28;20483;-64
2023/06/02 09:54:44;;;;;;;9.00;4.55;;;;;;;;;;5119376;28;20206;-63
2023/06/02 09:57:13;;;;;;;9.75;5.28;;;;;;;;;;5119234;28;20207;-63
2023/06/02 09:59:41;;;;;;;9.02;4.78;;;;;;;;;;5118583;28;20203;-63
2023/06/02 10:02:09;;;;;;;8.85;4.50;;;;;;;;;;5118664;28;20199;-63
2023/06/02 10:04:37;;;;;;;7.93;4.93;;;;;;;;;;5118726;28;20218;-63
2023/06/02 10:07:15;;;;;;;6.95;4.65;;;;;;;;;;5118575;28;20203;-64
2023/06/02 10:09:51;;;;;;;9.30;4.80;;;;;;;;;;5119696;28;20505;-63
2023/06/02 10:12:25;;;;;;;8.13;4.90;;;;;;;;;;5118482;28;20648;-64
2023/06/02 10:15:13;;;;;;;7.15;4.78;;;;;;;;;;5118560;28;20213;-64
2023/06/02 10:17:46;;;;;;;8.98;5.07;;;;;;;;;;5076437;28;20203;-63
2023/06/02 10:20:26;;;;;;;7.63;5.10;;;;;;;;;;5118783;28;20559;-63
2023/06/02 10:23:12;;;;;;;6.75;5.10;;;;;;;;;;5118881;28;20487;-63
2023/06/02 10:25:50;;;;;;;7.32;4.78;;;;;;;;;;5118353;28;20222;-64
2023/06/02 10:28:19;;;;;;;8.55;4.75;;;;;;;;;;5117982;28;20203;-63
2023/06/02 10:30:46;;;;;;;9.15;5.28;;;;;;;;;;5118036;28;20289;-64
2023/06/02 10:33:13;;;;;;;9.98;5.47;;;;;;;;;;5118625;28;20230;-64
2023/06/02 10:35:57;;;;;;;9.57;5.68;;;;;;;;;;5117763;28;20230;-63
2023/06/02 10:38:28;;;;;;;7.55;4.80;;;;;;;;;;5117584;28;20226;-63
2023/06/02 10:40:55;;;;;;;7.30;5.05;;;;;;;;;;5117130;28;20207;-64
2023/06/02 10:43:24;;;;;;;7.82;5.13;;;;;;;;;;5117420;28;20207;-64
2023/06/02 10:45:52;;;;;;;9.55;5.28;;;;;;;;;;5118212;28;20223;-63
2023/06/02 10:48:37;;;;;;;8.82;5.45;;;;;;;;;;5118004;28;20539;-63
2023/06/02 10:51:05;;;;;;;8.40;5.10;;;;;;;;;;5116682;28;20309;-63
2023/06/02 10:53:33;;;;;;;9.88;4.97;;;;;;;;;;5117410;28;20209;-64
2023/06/02 10:56:15;;;;;;;9.70;5.05;;;;;;;;;;5117897;28;20199;-63
2023/06/02 10:58:50;;;;;;;8.15;4.88;;;;;;;;;;5116890;28;20210;-64
2023/06/02 11:01:32;;;;;;;8.48;5.43;;;;;;;;;;5121573;27;20600;-64
2023/06/02 11:03:59;;;;;;;9.07;5.43;;;;;;;;;;5137723;27;20213;-63
2023/06/02 11:06:29;;;;;;;9.40;4.95;;;;;;;;;;5137420;27;20205;-64
2023/06/02 11:09:16;;;;;;;9.43;5.63;;;;;;;;;;5137827;27;20202;-64
2023/06/02 11:11:51;;;;;;;10.13;5.03;;;;;;;;;;5138429;27;20202;-64
2023/06/02 11:14:20;;;;;;;8.95;4.72;;;;;;;;;;5137855;27;20202;-64
2023/06/02 11:17:08;;;;;;;8.70;4.25;;;;;;;;;;5137455;27;20209;-64
2023/06/02 11:19:49;;;;;;;7.72;4.90;;;;;;;;;;5136319;27;20198;-64
2023/06/02 11:22:19;;;;;;;8.13;5.43;;;;;;;;;;5137287;27;20225;-64
2023/06/02 11:24:47;;;;;;;10.52;5.28;;;;;;;;;;5136073;27;20226;-64
2023/06/02 11:27:14;;;;;;;9.85;5.30;;;;;;;;;;5136394;27;20208;-64
2023/06/02 11:29:44;;;;;;;9.18;4.72;;;;;;;;;;5136665;27;20202;-63
2023/06/02 11:32:12;;;;;;;7.93;4.60;;;;;;;;;;5136268;27;20264;-64
2023/06/02 11:34:39;;;;;;;8.15;5.00;;;;;;;;;;5136217;27;20222;-63
2023/06/02 11:37:14;;;;;;;10.05;4.93;;;;;;;;;;5137320;27;20202;-63
2023/06/02 11:39:51;;;;;;;10.57;4.57;;;;;;;;;;5137453;27;20201;-63
2023/06/02 11:42:18;;;;;;;7.88;4.20;;;;;;;;;;5136083;27;20229;-64
2023/06/02 11:44:50;;;;;;;9.27;4.45;;;;;;;;;;5135404;27;20658;-64
2023/06/02 11:47:21;;;;;;;9.63;4.07;;;;;;;;;;5136267;27;20194;-64
2023/06/02 11:49:48;;;;;;;7.45;4.18;;;;;;;;;;5136386;27;20507;-64
2023/06/02 11:52:16;;;;;;;8.73;4.28;;;;;;;;;;5136250;27;20206;-64
2023/06/02 11:54:52;;;;;;;7.28;4.43;;;;;;;;;;5136396;27;20210;-63
2023/06/02 11:57:26;;;;;;;7.25;4.13;;;;;;;;;;5136452;27;20217;-63
2023/06/02 12:00:12;;;;;;;8.88;4.45;;;;;;;;;;5135774;27;20209;-63
2023/06/02 12:02:40;;;;;;;5.93;4.00;;;;;;;;;;5130298;27;20223;-64
2023/06/02 12:05:09;;;;;;;8.95;4.40;;;;;;;;;;5135362;27;20231;-64
2023/06/02 12:07:37;;;;;;;6.43;4.00;;;;;;;;;;5136481;27;20242;-64
2023/06/02 12:10:05;;;;;;;9.40;3.80;;;;;;;;;;5136216;27;20597;-63
2023/06/02 12:12:33;;;;;;;7.78;3.72;;;;;;;;;;5135174;27;20194;-64
2023/06/02 12:15:00;;;;;;;6.30;3.75;;;;;;;;;;5136221;27;20190;-64
2023/06/02 12:17:29;;;;;;;7.68;3.78;;;;;;;;;;5135384;27;20198;-64
2023/06/02 12:19:59;;;;;;;8.70;3.45;;;;;;;;;;5134826;27;20493;-63
2023/06/02 12:22:26;;;;;;;5.43;3.75;;;;;;;;;;5135310;27;20202;-64
2023/06/02 12:24:54;;;;;;;8.00;4.13;;;;;;;;;;5137342;27;20633;-64
2023/06/02 12:27:22;;;;;;;7.38;4.05;;;;;;;;;;5136166;27;20509;-64
2023/06/02 12:29:50;;;;;;;8.23;3.67;;;;;;;;;;5135696;27;20198;-63
2023/06/02 12:32:26;;;;;;;6.55;3.50;;;;;;;;;;5135550;27;20201;-63
2023/06/02 12:34:54;;;;;;;8.23;3.72;;;;;;;;;;5135345;27;20298;-64
2023/06/02 12:37:22;;;;;;;7.88;3.50;;;;;;;;;;5135510;27;20202;-64
2023/06/02 12:39:51;;;;;;;6.03;3.28;;;;;;;;;;5135144;27;20206;-64
2023/06/02 12:42:20;;;;;;;5.90;3.88;;;;;;;;;;5134968;27;20266;-64
2023/06/02 12:44:48;;;;;;;6.10;3.53;;;;;;;;;;5135721;27;20198;-64
2023/06/02 12:47:16;;;;;;;6.70;3.47;;;;;;;;;;5135625;27;20267;-64
2023/06/02 12:49:47;;;;;;;6.88;3.88;;;;;;;;;;5135221;27;20304;-66
2023/06/02 12:52:16;;;;;;;7.10;3.92;;;;;;;;;;5134153;27;20245;-63
2023/06/02 12:54:43;;;;;;;6.68;3.72;;;;;;;;;;5135675;27;20650;-64
2023/06/02 12:57:10;;;;;;;7.30;3.20;;;;;;;;;;5134852;27;20197;-64
2023/06/02 12:59:38;;;;;;;8.57;3.65;;;;;;;;;;5134799;27;20209;-64
2023/06/02 13:02:06;;;;;;;7.55;3.53;;;;;;;;;;5134269;27;20484;-64
2023/06/02 13:04:33;;;;;;;5.57;3.10;;;;;;;;;;5135240;27;20202;-63
2023/06/02 13:07:02;;;;;;;7.13;3.70;;;;;;;;;;5135869;27;20240;-64
2023/06/02 13:09:30;;;;;;;6.20;3.63;;;;;;;;;;5135024;27;20241;-64
2023/06/02 13:11:58;;;;;;;5.40;3.22;;;;;;;;;;5134428;27;20209;-63
2023/06/02 13:14:26;;;;;;;6.05;3.45;;;;;;;;;;5133746;27;20550;-63
2023/06/02 13:16:54;;;;;;;6.53;3.58;;;;;;;;;;5135260;27;20337;-64
2023/06/02 13:19:21;;;;;;;6.18;3.30;;;;;;;;;;5134463;27;20202;-64
2023/06/02 13:21:48;;;;;;;7.85;3.67;;;;;;;;;;5135274;27;20209;-64
2023/06/02 13:24:16;;;;;;;5.13;3.15;;;;;;;;;;5134996;27;20202;-64
2023/06/02 13:26:45;;;;;;;5.68;3.08;;;;;;;;;;5134292;27;20288;-64
2023/06/02 13:29:12;;;;;;;5.55;3.40;;;;;;;;;;5135210;27;20212;-63
2023/06/02 13:31:41;;;;;;;5.20;3.33;;;;;;;;;;5134509;27;20198;-63
2023/06/02 13:34:08;;;;;;;6.70;3.50;;;;;;;;;;5135485;27;20259;-64
2023/06/02 13:36:36;;;;;;;6.80;3.67;;;;;;;;;;5134548;27;20523;-64
2023/06/02 13:39:04;;;;;;;5.70;3.35;;;;;;;;;;5134547;28;20208;-63
2023/06/02 13:41:31;;;;;;;5.70;3.45;;;;;;;;;;5135329;27;20202;-63
2023/06/02 13:44:00;;;;;;;6.13;3.65;;;;;;;;;;5134359;27;20586;-64
2023/06/02 13:46:27;;;;;;;7.78;4.00;;;;;;;;;;5134788;27;20225;-64
2023/06/02 13:48:55;;;;;;;5.35;3.30;;;;;;;;;;5134865;27;20206;-64
2023/06/02 13:51:22;;;;;;;5.68;3.70;;;;;;;;;;5122487;27;20198;-64
2023/06/02 13:53:50;;;;;;;7.35;3.78;;;;;;;;;;5113532;28;20211;-64
2023/06/02 13:56:17;;;;;;;7.93;3.50;;;;;;;;;;5113475;28;20234;-63
2023/06/02 13:58:44;;;;;;;5.22;3.47;;;;;;;;;;5114089;28;20210;-64
2023/06/02 14:01:13;;;;;;;6.60;3.40;;;;;;;;;;5111999;28;20650;-64
2023/06/02 14:03:41;;;;;;;5.85;3.22;;;;;;;;;;5112981;28;20618;-64
2023/06/02 14:06:08;;;;;;;5.65;3.17;;;;;;;;;;5114095;28;20548;-63
2023/06/02 14:08:36;;;;;;;5.00;3.47;;;;;;;;;;5113424;28;20289;-63
2023/06/02 14:11:04;;;;;;;6.95;3.50;;;;;;;;;;5113501;28;20210;-63
2023/06/02 14:13:31;;;;;;;6.97;3.95;;;;;;;;;;5113741;28;20506;-64
2023/06/02 14:15:59;;;;;;;6.82;3.70;;;;;;;;;;5113285;28;20195;-64
2023/06/02 14:18:27;;;;;;;9.10;3.78;;;;;;;;;;5112426;28;20210;-63
2023/06/02 14:20:55;;;;;;;7.25;4.03;;;;;;;;;;5114186;28;20206;-64
2023/06/02 14:23:22;;;;;;;6.82;3.50;;;;;;;;;;5114293;28;20589;-64
2023/06/02 14:25:49;;;;;;;7.03;3.50;;;;;;;;;;5117182;28;20230;-64
2023/06/02 14:28:16;;;;;;;5.68;3.65;;;;;;;;;;5117657;28;20214;-64
2023/06/02 14:30:44;;;;;;;6.57;3.60;;;;;;;;;;5117993;28;20206;-64
2023/06/02 14:33:12;;;;;;;6.43;3.80;;;;;;;;;;5117250;28;20195;-64
2023/06/02 14:35:40;;;;;;;6.22;3.70;;;;;;;;;;5117388;28;20227;-64
2023/06/02 14:38:08;;;;;;;6.05;3.53;;;;;;;;;;5117844;28;20282;-64
2023/06/02 14:40:36;;;;;;;7.50;3.85;;;;;;;;;;5117601;28;20207;-64
2023/06/02 14:43:03;;;;;;;7.97;3.75;;;;;;;;;;5117519;28;20210;-64
2023/06/02 14:45:31;;;;;;;5.55;3.67;;;;;;;;;;5116771;28;20524;-64
2023/06/02 14:47:58;;;;;;;4.90;3.45;;;;;;;;;;5116530;28;20202;-64
2023/06/02 14:50:26;;;;;;;5.28;3.22;;;;;;;;;;5116818;28;20495;-64